Time;durP1;ratioP1;P1;durP2;ratioP2;P2;SDS_P1;SDS_P2;PMS_P1;PMS_P2;Temp;Humidity;BMP_temperature;BMP_pressure;BME280_temperature;BME280_humidity;BME280_pressure;Samples;Min_cycle;Max_cycle;Signal;HPM_P1;HPM_P2
2021/12/28 00:00:07;;;;;;;8.82;7.32;;;9.80;99.90;;;;;;4990858;28;20033;-80
2021/12/28 00:02:33;;;;;;;7.68;6.88;;;9.70;99.90;;;;;;4989749;28;20018;-79
2021/12/28 00:04:58;;;;;;;7.05;6.20;;;9.80;99.90;;;;;;4971406;28;20070;-79
2021/12/28 00:07:24;;;;;;;6.60;5.90;;;9.70;99.90;;;;;;4973371;28;20022;-79
2021/12/28 00:09:49;;;;;;;9.25;6.80;;;9.70;99.90;;;;;;4973147;28;20471;-77
2021/12/28 00:12:15;;;;;;;7.45;6.72;;;9.70;99.90;;;;;;4989696;28;20034;-78
2021/12/28 00:14:49;;;;;;;7.43;6.72;;;9.70;99.90;;;;;;4971968;28;20061;-79
2021/12/28 00:19:59;;;;;;;8.80;6.55;;;9.80;99.90;;;;;;4989870;28;20085;-79
2021/12/28 00:22:25;;;;;;;9.13;7.15;;;9.80;99.90;;;;;;4990259;28;20038;-78
2021/12/28 00:24:50;;;;;;;9.20;7.30;;;9.80;99.90;;;;;;4973228;28;20448;-79
2021/12/28 00:27:16;;;;;;;10.30;7.82;;;9.70;99.90;;;;;;4990061;28;20084;-79
2021/12/28 00:29:42;;;;;;;7.95;6.88;;;9.70;99.90;;;;;;4989547;28;20054;-79
2021/12/28 00:32:09;;;;;;;8.35;6.32;;;9.60;99.90;;;;;;4994311;28;20462;-79
2021/12/28 00:34:35;;;;;;;8.63;6.40;;;9.60;99.90;;;;;;4976042;28;20034;-79
2021/12/28 00:37:00;;;;;;;8.20;6.50;;;9.60;99.90;;;;;;4994331;28;20014;-79
2021/12/28 00:39:26;;;;;;;7.57;6.20;;;9.50;99.90;;;;;;4993461;28;20022;-78
2021/12/28 00:41:52;;;;;;;8.02;5.88;;;9.50;99.90;;;;;;4992936;28;20072;-78
2021/12/28 00:44:18;;;;;;;8.60;6.25;;;9.50;99.90;;;;;;4993723;28;20057;-77
2021/12/28 00:46:44;;;;;;;9.40;6.03;;;9.50;99.90;;;;;;4975958;28;20129;-78
2021/12/28 00:49:10;;;;;;;8.48;6.25;;;9.40;99.90;;;;;;4974585;28;20092;-76
2021/12/28 00:51:37;;;;;;;7.35;5.93;;;9.40;99.90;;;;;;4993803;28;20026;-78
2021/12/28 00:54:03;;;;;;;6.85;5.68;;;9.30;99.90;;;;;;4993282;28;20133;-78
2021/12/28 00:56:28;;;;;;;6.65;5.57;;;9.20;99.90;;;;;;4976024;28;20022;-81
2021/12/28 00:58:54;;;;;;;9.48;5.45;;;9.20;99.90;;;;;;4976609;28;20496;-81
2021/12/28 01:01:20;;;;;;;7.78;5.70;;;9.20;99.90;;;;;;4974656;28;20029;-81
2021/12/28 01:03:46;;;;;;;8.55;5.38;;;9.20;99.90;;;;;;4987036;28;20022;-81
2021/12/28 01:06:11;;;;;;;7.22;5.32;;;9.20;99.90;;;;;;4986372;28;20467;-79
2021/12/28 01:08:38;;;;;;;7.32;5.38;;;9.10;99.90;;;;;;4990564;28;20076;-81
2021/12/28 01:11:05;;;;;;;6.57;4.80;;;9.10;99.90;;;;;;4992996;28;20038;-81
2021/12/28 01:13:31;;;;;;;6.18;5.35;;;9.10;99.90;;;;;;4975809;28;20034;-81
2021/12/28 01:15:57;;;;;;;6.65;4.93;;;9.00;99.90;;;;;;4992670;28;20491;-77
2021/12/28 01:18:23;;;;;;;6.90;5.15;;;8.90;99.90;;;;;;4976093;28;20061;-79
2021/12/28 01:20:50;;;;;;;6.30;4.70;;;8.90;99.90;;;;;;4993689;28;20467;-79
2021/12/28 01:23:16;;;;;;;6.70;4.82;;;8.80;99.90;;;;;;4991153;28;20046;-79
2021/12/28 01:25:41;;;;;;;7.22;5.13;;;8.70;99.90;;;;;;4975860;28;20105;-79
2021/12/28 01:28:08;;;;;;;7.93;5.07;;;8.70;99.90;;;;;;4975961;28;20432;-78
2021/12/28 01:30:34;;;;;;;8.68;5.20;;;8.60;99.90;;;;;;4975038;28;20041;-78
2021/12/28 01:33:01;;;;;;;6.82;4.88;;;8.60;99.90;;;;;;4993460;28;20054;-79
2021/12/28 01:35:29;;;;;;;6.55;4.95;;;8.50;99.90;;;;;;4992425;28;20069;-79
2021/12/28 01:37:55;;;;;;;6.55;4.72;;;8.50;99.90;;;;;;4972792;28;20019;-79
2021/12/28 01:40:24;;;;;;;5.15;4.10;;;8.50;99.90;;;;;;4992898;28;20034;-77
2021/12/28 01:43:02;;;;;;;7.10;4.82;;;8.50;99.90;;;;;;4992744;28;20098;-78
2021/12/28 01:45:36;;;;;;;7.90;4.53;;;8.50;99.90;;;;;;4992546;28;20030;-79
2021/12/28 01:48:03;;;;;;;5.72;4.38;;;8.50;99.90;;;;;;4993019;28;20077;-79
2021/12/28 01:50:29;;;;;;;5.93;4.63;;;8.60;99.90;;;;;;4990255;28;20026;-79
2021/12/28 01:52:54;;;;;;;8.65;5.45;;;8.70;99.90;;;;;;4975306;28;20037;-80
2021/12/28 01:55:20;;;;;;;7.25;4.68;;;8.70;99.90;;;;;;4992278;28;20035;-81
2021/12/28 01:57:46;;;;;;;9.25;4.43;;;8.80;99.90;;;;;;4974320;28;20030;-79
2021/12/28 02:00:12;;;;;;;4.85;4.07;;;8.90;99.90;;;;;;4974918;28;20026;-78
2021/12/28 02:02:38;;;;;;;5.45;4.03;;;8.90;99.90;;;;;;4991190;28;20089;-79
2021/12/28 02:05:04;;;;;;;6.43;4.38;;;8.90;99.90;;;;;;4991820;28;20062;-79
2021/12/28 02:07:29;;;;;;;6.97;4.05;;;9.00;99.90;;;;;;4992417;28;20057;-80
2021/12/28 02:09:55;;;;;;;6.22;3.92;;;9.00;99.90;;;;;;4975208;28;20560;-80
2021/12/28 02:12:21;;;;;;;5.30;4.00;;;9.00;99.90;;;;;;4974015;28;20113;-78
2021/12/28 02:14:47;;;;;;;9.18;4.22;;;9.00;99.90;;;;;;4992608;28;20052;-79
2021/12/28 02:17:14;;;;;;;8.10;4.10;;;9.00;99.90;;;;;;4973725;28;20058;-79
2021/12/28 02:19:40;;;;;;;6.95;3.83;;;9.00;99.90;;;;;;4974393;28;20038;-80
2021/12/28 02:22:06;;;;;;;6.05;3.85;;;9.00;99.90;;;;;;4992288;28;20018;-81
2021/12/28 02:24:31;;;;;;;5.63;4.15;;;9.00;99.90;;;;;;4991655;28;20113;-79
2021/12/28 02:26:57;;;;;;;8.25;4.85;;;9.00;99.90;;;;;;4991734;28;20022;-78
2021/12/28 02:29:22;;;;;;;11.48;4.55;;;8.90;99.90;;;;;;4972507;28;20042;-78
2021/12/28 02:31:50;;;;;;;5.18;3.97;;;8.90;99.90;;;;;;4986371;28;20110;-77
2021/12/28 02:34:16;;;;;;;7.07;4.05;;;8.90;99.90;;;;;;4973067;28;20042;-79
2021/12/28 02:36:42;;;;;;;6.15;3.85;;;8.90;99.90;;;;;;5007598;28;20033;-77
2021/12/28 02:39:07;;;;;;;6.50;4.40;;;8.90;99.90;;;;;;5008110;28;20022;-77
2021/12/28 02:41:33;;;;;;;6.63;4.13;;;8.90;99.90;;;;;;4974243;28;20026;-77
2021/12/28 02:44:01;;;;;;;6.78;4.55;;;9.00;99.90;;;;;;4991847;28;20030;-77
2021/12/28 02:46:27;;;;;;;9.45;5.10;;;9.00;99.90;;;;;;4990874;28;20096;-77
2021/12/28 02:48:53;;;;;;;8.30;5.03;;;9.00;99.90;;;;;;4992235;28;20035;-77
2021/12/28 02:51:19;;;;;;;6.28;4.38;;;9.00;99.90;;;;;;4994603;28;20421;-78
2021/12/28 02:53:45;;;;;;;7.25;4.60;;;8.90;99.90;;;;;;5010310;28;20471;-78
2021/12/28 02:56:13;;;;;;;7.18;5.28;;;9.00;99.90;;;;;;5010340;28;20018;-79
2021/12/28 02:58:41;;;;;;;8.68;5.43;;;8.90;99.90;;;;;;4991729;28;20029;-80
2021/12/28 03:01:23;;;;;;;8.50;5.35;;;8.90;99.90;;;;;;4991062;28;20060;-80
2021/12/28 03:03:55;;;;;;;6.80;4.68;;;8.90;99.90;;;;;;4993655;28;20030;-79
2021/12/28 03:06:22;;;;;;;8.40;5.35;;;8.90;99.90;;;;;;4993326;28;20053;-79
2021/12/28 03:08:53;;;;;;;10.32;5.13;;;8.80;99.90;;;;;;5010448;28;20041;-81
2021/12/28 03:11:19;;;;;;;7.47;6.23;;;8.80;99.90;;;;;;4989525;28;20504;-81
2021/12/28 03:13:50;;;;;;;6.82;5.07;;;8.80;99.90;;;;;;5010860;28;20101;-81
2021/12/28 03:16:17;;;;;;;6.43;5.00;;;8.70;99.90;;;;;;5010472;28;20030;-81
2021/12/28 03:18:43;;;;;;;5.80;4.65;;;8.70;99.90;;;;;;4992647;28;20087;-81
2021/12/28 03:21:11;;;;;;;5.80;4.97;;;8.70;99.90;;;;;;5010586;28;20663;-81
2021/12/28 03:23:38;;;;;;;5.90;5.00;;;8.70;99.90;;;;;;5010620;28;20137;-79
2021/12/28 03:26:05;;;;;;;7.63;6.13;;;8.70;99.90;;;;;;5009964;28;20026;-82
2021/12/28 03:28:35;;;;;;;8.05;6.38;;;8.70;99.90;;;;;;4992683;28;20034;-81
2021/12/28 03:31:01;;;;;;;7.85;5.78;;;8.70;99.90;;;;;;4993125;28;20026;-81
2021/12/28 03:33:30;;;;;;;7.75;5.70;;;8.70;99.90;;;;;;5009689;28;20025;-82
2021/12/28 03:35:56;;;;;;;5.90;5.28;;;8.70;99.90;;;;;;4992918;28;20018;-78
2021/12/28 03:38:23;;;;;;;8.15;5.38;;;8.70;99.90;;;;;;5010410;28;20030;-81
2021/12/28 03:40:49;;;;;;;10.70;5.20;;;8.60;99.90;;;;;;4991709;28;20072;-81
2021/12/28 03:43:16;;;;;;;7.35;4.97;;;8.50;99.90;;;;;;4992287;28;20029;-81
2021/12/28 03:45:42;;;;;;;8.73;5.45;;;8.40;99.90;;;;;;4992920;28;20033;-80
2021/12/28 03:48:07;;;;;;;7.78;4.95;;;8.40;99.90;;;;;;4992333;28;20022;-81
2021/12/28 03:50:34;;;;;;;6.55;4.90;;;8.30;99.90;;;;;;4992436;28;20034;-80
2021/12/28 03:53:00;;;;;;;6.65;5.60;;;8.30;99.90;;;;;;5010195;28;20028;-81
2021/12/28 03:55:26;;;;;;;6.95;5.47;;;8.40;99.90;;;;;;5009629;28;20030;-80
2021/12/28 03:57:55;;;;;;;5.78;5.03;;;8.40;99.90;;;;;;4992998;28;20042;-80
2021/12/28 04:00:23;;;;;;;6.38;5.50;;;8.40;99.90;;;;;;4992159;28;20108;-78
2021/12/28 04:02:49;;;;;;;4.93;4.30;;;8.40;99.90;;;;;;4992561;28;20026;-81
2021/12/28 04:05:16;;;;;;;6.65;5.00;;;8.40;99.90;;;;;;5011732;28;20470;-82
2021/12/28 04:07:42;;;;;;;6.20;4.43;;;8.40;99.90;;;;;;4996147;28;20030;-82
2021/12/28 04:10:10;;;;;;;8.85;4.90;;;8.40;99.90;;;;;;5014783;28;20119;-82
2021/12/28 04:12:37;;;;;;;7.97;4.70;;;8.50;99.90;;;;;;4996485;28;20032;-82
2021/12/28 04:15:03;;;;;;;9.70;6.20;;;8.40;99.90;;;;;;4996402;28;20382;-83
2021/12/28 04:17:31;;;;;;;7.38;5.00;;;8.50;99.90;;;;;;5013878;28;20475;-82
2021/12/28 04:19:57;;;;;;;7.65;4.95;;;8.50;99.90;;;;;;4996400;28;20048;-80
2021/12/28 04:22:23;;;;;;;6.85;4.80;;;8.50;99.90;;;;;;5013215;28;20058;-83
2021/12/28 04:24:48;;;;;;;5.78;4.30;;;8.50;99.90;;;;;;4996505;28;20076;-81
2021/12/28 04:27:14;;;;;;;6.72;4.68;;;8.60;99.90;;;;;;5013790;28;20030;-78
2021/12/28 04:29:40;;;;;;;7.68;5.03;;;8.60;99.90;;;;;;4995403;28;20034;-80
2021/12/28 04:32:06;;;;;;;5.93;4.65;;;8.60;99.90;;;;;;4995988;28;20426;-79
2021/12/28 04:34:32;;;;;;;8.00;4.75;;;8.60;99.90;;;;;;4995343;28;20444;-80
2021/12/28 04:36:57;;;;;;;5.47;4.55;;;8.60;99.90;;;;;;5013252;28;20014;-79
2021/12/28 04:39:23;;;;;;;7.10;4.20;;;8.60;99.90;;;;;;5013811;28;20485;-80
2021/12/28 04:41:49;;;;;;;5.35;4.30;;;8.60;99.90;;;;;;5013955;28;20076;-81
2021/12/28 04:44:22;;;;;;;6.07;4.20;;;8.60;99.90;;;;;;4995115;28;20470;-83
2021/12/28 04:46:47;;;;;;;5.03;4.20;;;8.60;99.90;;;;;;5013801;28;20052;-83
2021/12/28 04:49:15;;;;;;;7.28;5.20;;;8.70;99.90;;;;;;4995820;28;20494;-83
2021/12/28 04:51:41;;;;;;;4.78;3.88;;;8.70;99.90;;;;;;4995317;28;20024;-82
2021/12/28 04:54:11;;;;;;;5.53;3.75;;;8.70;99.90;;;;;;5013756;28;20101;-81
2021/12/28 04:56:37;;;;;;;7.40;3.97;;;8.70;99.90;;;;;;5012728;28;20027;-79
2021/12/28 04:59:03;;;;;;;5.78;4.35;;;8.70;99.90;;;;;;4996035;28;20092;-81
2021/12/28 05:01:28;;;;;;;6.90;5.03;;;8.70;99.90;;;;;;4995285;28;20030;-79
2021/12/28 05:03:54;;;;;;;9.00;5.05;;;8.80;99.90;;;;;;4995460;28;20092;-78
2021/12/28 05:06:20;;;;;;;8.43;4.65;;;8.80;99.90;;;;;;5004677;28;20026;-78
2021/12/28 05:08:45;;;;;;;6.57;4.45;;;8.80;99.90;;;;;;4986374;28;20364;-78
2021/12/28 05:11:11;;;;;;;5.15;4.07;;;8.80;99.90;;;;;;4995371;28;20021;-77
2021/12/28 05:13:36;;;;;;;7.10;4.43;;;8.80;99.90;;;;;;4978983;28;20097;-77
2021/12/28 05:16:02;;;;;;;7.82;4.50;;;8.80;99.90;;;;;;4993125;28;20041;-78
2021/12/28 05:18:28;;;;;;;9.77;4.50;;;8.80;99.90;;;;;;4992401;28;20041;-77
2021/12/28 05:20:53;;;;;;;5.95;4.13;;;8.80;99.90;;;;;;4975724;28;20034;-76
2021/12/28 05:23:19;;;;;;;7.90;4.40;;;8.80;99.90;;;;;;4958912;28;20050;-76
2021/12/28 05:25:45;;;;;;;7.72;4.22;;;8.90;99.90;;;;;;4950693;29;20035;-77
2021/12/28 05:28:10;;;;;;;6.03;4.22;;;8.90;99.90;;;;;;4954612;28;20053;-75
2021/12/28 05:30:36;;;;;;;6.05;4.28;;;8.80;99.90;;;;;;4954293;28;20038;-77
2021/12/28 05:33:03;;;;;;;6.50;3.83;;;8.90;99.90;;;;;;4953809;28;20491;-76
2021/12/28 05:35:28;;;;;;;8.38;3.95;;;8.90;99.90;;;;;;4954022;28;20101;-76
2021/12/28 05:37:54;;;;;;;7.80;3.80;;;8.90;99.90;;;;;;4952927;28;20563;-77
2021/12/28 05:40:20;;;;;;;10.23;4.00;;;8.90;99.90;;;;;;4952771;29;20027;-78
2021/12/28 05:42:46;;;;;;;6.18;3.90;;;8.90;99.90;;;;;;4953039;29;20480;-79
2021/12/28 05:45:11;;;;;;;7.18;4.63;;;8.90;99.90;;;;;;4953278;29;20027;-78
2021/12/28 05:47:37;;;;;;;6.32;4.10;;;8.90;99.90;;;;;;4952342;28;20082;-77
2021/12/28 05:50:05;;;;;;;8.38;4.43;;;8.90;99.90;;;;;;4954080;28;20440;-79
2021/12/28 05:52:31;;;;;;;6.30;3.63;;;9.00;99.90;;;;;;4953795;28;20027;-77
2021/12/28 05:54:56;;;;;;;5.47;3.42;;;9.00;99.90;;;;;;4953676;28;20029;-76
2021/12/28 05:57:22;;;;;;;8.18;3.65;;;9.00;99.90;;;;;;4972307;28;20114;-76
2021/12/28 05:59:48;;;;;;;5.40;4.03;;;9.00;99.90;;;;;;4971465;28;20019;-75
2021/12/28 06:02:13;;;;;;;7.47;3.65;;;9.00;99.90;;;;;;4957197;28;20054;-77
2021/12/28 06:04:39;;;;;;;5.38;3.72;;;9.00;99.90;;;;;;4951686;28;20367;-80
2021/12/28 06:07:04;;;;;;;5.93;3.60;;;9.00;99.90;;;;;;4951816;28;20074;-78
2021/12/28 06:09:30;;;;;;;5.43;2.88;;;8.90;99.90;;;;;;4952118;28;20071;-78
2021/12/28 06:11:55;;;;;;;4.95;3.00;;;8.90;99.90;;;;;;4952878;28;20019;-77
2021/12/28 06:14:21;;;;;;;5.15;3.10;;;8.90;99.90;;;;;;4953305;28;20494;-77
2021/12/28 06:16:47;;;;;;;6.20;3.10;;;8.90;99.90;;;;;;4952529;29;20468;-77
2021/12/28 06:19:12;;;;;;;7.95;3.63;;;8.90;99.90;;;;;;4953237;29;20035;-79
2021/12/28 06:21:38;;;;;;;6.35;2.95;;;8.90;99.90;;;;;;4951657;29;20099;-77
2021/12/28 06:24:06;;;;;;;8.13;3.20;;;9.00;99.90;;;;;;4990260;28;20490;-78
2021/12/28 06:26:32;;;;;;;5.05;3.17;;;9.00;99.90;;;;;;4973767;28;20141;-77
2021/12/28 06:28:59;;;;;;;7.78;3.20;;;9.00;99.90;;;;;;4973647;28;20045;-78
2021/12/28 06:31:28;;;;;;;8.80;3.58;;;9.00;99.90;;;;;;4992082;28;20086;-76
2021/12/28 06:33:59;;;;;;;11.15;3.80;;;9.00;99.90;;;;;;4974499;28;20026;-81
2021/12/28 06:36:26;;;;;;;7.57;3.47;;;9.00;99.90;;;;;;4973793;28;20022;-77
2021/12/28 06:38:52;;;;;;;8.02;3.53;;;9.00;99.90;;;;;;4992102;28;20026;-78
2021/12/28 06:41:18;;;;;;;6.53;3.60;;;9.10;99.90;;;;;;4991643;28;20463;-76
2021/12/28 06:43:44;;;;;;;9.75;3.20;;;9.00;99.90;;;;;;4973278;28;20027;-76
2021/12/28 06:46:09;;;;;;;7.32;3.83;;;9.00;99.90;;;;;;4974396;28;20172;-76
2021/12/28 06:48:35;;;;;;;10.10;3.38;;;9.00;99.90;;;;;;4991316;28;20033;-78
2021/12/28 06:51:01;;;;;;;4.53;2.90;;;9.10;99.90;;;;;;4973843;28;20045;-78
2021/12/28 06:53:26;;;;;;;11.55;3.45;;;9.10;99.90;;;;;;4991177;28;20015;-77
2021/12/28 06:55:52;;;;;;;8.73;3.13;;;9.10;99.90;;;;;;4991517;28;20030;-77
2021/12/28 06:58:17;;;;;;;6.93;3.22;;;9.10;99.90;;;;;;4973451;28;20117;-77
2021/12/28 07:00:43;;;;;;;7.50;3.13;;;9.10;99.90;;;;;;4974207;28;20033;-79
2021/12/28 07:03:09;;;;;;;8.73;3.53;;;9.10;99.90;;;;;;4991030;28;20467;-78
2021/12/28 07:05:34;;;;;;;7.30;3.10;;;9.10;99.90;;;;;;4973540;28;20471;-78
2021/12/28 07:08:01;;;;;;;8.73;3.92;;;9.10;99.90;;;;;;4973988;28;20085;-78
2021/12/28 07:10:26;;;;;;;6.07;2.85;;;9.10;99.90;;;;;;4972754;28;20030;-78
2021/12/28 07:12:53;;;;;;;6.68;2.78;;;9.20;99.90;;;;;;4973386;28;20110;-78
2021/12/28 07:15:21;;;;;;;6.03;2.50;;;9.10;99.90;;;;;;4971631;28;20034;-78
2021/12/28 07:17:47;;;;;;;5.18;2.55;;;9.20;99.90;;;;;;4988716;28;20037;-78
2021/12/28 07:20:14;;;;;;;4.00;2.13;;;9.10;99.90;;;;;;4967382;28;20034;-77
2021/12/28 07:22:40;;;;;;;6.78;2.33;;;9.20;99.90;;;;;;4991356;28;20487;-79
2021/12/28 07:25:07;;;;;;;5.85;2.95;;;9.20;99.90;;;;;;4972829;28;20054;-80
2021/12/28 07:27:33;;;;;;;4.38;2.50;;;9.20;99.90;;;;;;4973547;28;20118;-78
2021/12/28 07:29:58;;;;;;;5.43;2.40;;;9.20;99.90;;;;;;4972249;28;20125;-79
2021/12/28 07:32:24;;;;;;;7.60;2.70;;;9.20;99.90;;;;;;4971642;28;20022;-80
2021/12/28 07:34:50;;;;;;;7.13;2.85;;;9.20;99.90;;;;;;4976861;28;20553;-79
2021/12/28 07:37:16;;;;;;;6.05;2.58;;;9.20;99.90;;;;;;4972895;28;20036;-79
2021/12/28 07:39:41;;;;;;;6.60;2.85;;;9.20;99.90;;;;;;4972441;28;20026;-80
2021/12/28 07:42:07;;;;;;;8.20;3.15;;;9.20;99.90;;;;;;4972885;28;20033;-81
2021/12/28 07:44:34;;;;;;;4.93;2.45;;;9.20;99.90;;;;;;4972434;28;20026;-79
2021/12/28 07:47:01;;;;;;;5.68;2.55;;;9.20;99.90;;;;;;4971318;28;20021;-79
2021/12/28 07:49:27;;;;;;;6.20;2.90;;;9.30;99.90;;;;;;5002404;28;20092;-79
2021/12/28 07:51:52;;;;;;;5.45;3.13;;;9.30;99.90;;;;;;4992837;28;20021;-77
2021/12/28 07:54:18;;;;;;;5.40;2.67;;;9.30;99.90;;;;;;4989027;28;20084;-77
2021/12/28 07:56:43;;;;;;;6.10;2.63;;;9.30;99.90;;;;;;4989720;28;20429;-77
2021/12/28 07:59:10;;;;;;;6.40;2.85;;;9.30;99.90;;;;;;4973668;28;20034;-79
2021/12/28 08:01:36;;;;;;;7.60;2.70;;;9.30;99.90;;;;;;4990132;28;20026;-79
2021/12/28 08:04:05;;;;;;;3.63;2.38;;;9.30;99.90;;;;;;4973463;28;20030;-79
2021/12/28 08:06:31;;;;;;;6.50;2.78;;;9.40;99.90;;;;;;4972508;28;20379;-79
2021/12/28 08:08:56;;;;;;;5.30;2.47;;;9.40;99.90;;;;;;4972377;28;20037;-77
2021/12/28 08:11:23;;;;;;;6.72;3.13;;;9.40;99.90;;;;;;4990813;28;20489;-79
2021/12/28 08:13:51;;;;;;;7.45;2.78;;;9.40;99.90;;;;;;4990188;28;20037;-79
2021/12/28 08:16:17;;;;;;;8.00;3.20;;;9.40;99.90;;;;;;4971525;28;20038;-72
2021/12/28 08:18:42;;;;;;;8.82;2.53;;;9.40;99.90;;;;;;4990455;28;20022;-77
2021/12/28 08:21:08;;;;;;;6.00;2.70;;;9.50;99.90;;;;;;4989215;28;20031;-74
2021/12/28 08:23:38;;;;;;;6.20;2.50;;;9.40;99.90;;;;;;4995993;28;20076;-72
2021/12/28 08:26:03;;;;;;;7.18;2.65;;;9.50;99.90;;;;;;5008883;28;20065;-74
2021/12/28 08:28:29;;;;;;;6.45;2.60;;;9.50;99.90;;;;;;5003083;28;20058;-74
2021/12/28 08:30:56;;;;;;;9.27;2.85;;;9.50;99.90;;;;;;5010033;28;20022;-79
2021/12/28 08:33:22;;;;;;;7.18;3.35;;;9.50;99.90;;;;;;5009653;28;20022;-74
2021/12/28 08:35:48;;;;;;;4.43;2.13;;;9.60;99.90;;;;;;5009150;28;20030;-74
2021/12/28 08:38:13;;;;;;;5.25;2.70;;;9.60;99.90;;;;;;5007305;28;20027;-74
2021/12/28 08:40:40;;;;;;;6.90;3.13;;;9.60;99.90;;;;;;4988309;28;20085;-80
2021/12/28 08:43:07;;;;;;;5.57;2.50;;;9.60;99.90;;;;;;4985086;28;20065;-76
2021/12/28 08:45:34;;;;;;;4.68;2.58;;;9.60;99.90;;;;;;4965895;28;20023;-78
2021/12/28 08:48:00;;;;;;;7.35;2.72;;;9.60;99.90;;;;;;4988227;28;20095;-75
2021/12/28 08:50:26;;;;;;;4.55;2.30;;;9.60;99.90;;;;;;4960504;28;20046;-78
2021/12/28 08:52:52;;;;;;;7.20;2.85;;;9.70;99.90;;;;;;4957013;28;20550;-74
2021/12/28 08:55:20;;;;;;;7.60;2.78;;;9.70;99.90;;;;;;4974428;28;20109;-76
2021/12/28 08:57:46;;;;;;;4.68;2.25;;;9.70;99.90;;;;;;4982120;28;20025;-80
2021/12/28 09:00:18;;;;;;;5.28;2.40;;;9.70;99.90;;;;;;4974989;28;20042;-74
2021/12/28 09:02:43;;;;;;;6.97;2.30;;;9.70;99.90;;;;;;4992004;28;20073;-74
2021/12/28 09:05:09;;;;;;;4.57;2.22;;;9.70;99.90;;;;;;4994156;28;20034;-81
2021/12/28 09:07:35;;;;;;;4.13;2.00;;;9.70;99.90;;;;;;4992750;28;20065;-74
2021/12/28 09:10:00;;;;;;;7.25;2.20;;;9.70;99.90;;;;;;4993035;28;20045;-78
2021/12/28 09:12:27;;;;;;;4.72;1.98;;;9.70;99.90;;;;;;4991586;28;20485;-73
2021/12/28 09:14:52;;;;;;;4.97;2.22;;;9.70;99.90;;;;;;4994299;28;20026;-83
2021/12/28 09:17:20;;;;;;;4.78;2.40;;;9.80;99.90;;;;;;5007854;28;20387;-72
2021/12/28 09:19:46;;;;;;;5.43;2.20;;;9.80;99.90;;;;;;5006934;28;20026;-73
2021/12/28 09:22:12;;;;;;;7.38;2.83;;;9.80;99.90;;;;;;4990182;28;20061;-73
2021/12/28 09:24:39;;;;;;;4.78;2.28;;;9.80;99.90;;;;;;4992850;28;20391;-74
2021/12/28 09:27:05;;;;;;;3.38;1.70;;;9.80;99.90;;;;;;4993160;28;20438;-75
2021/12/28 09:29:31;;;;;;;4.85;2.28;;;9.90;99.90;;;;;;4993120;28;20042;-72
2021/12/28 09:31:59;;;;;;;3.67;1.88;;;9.90;99.90;;;;;;4991240;28;20498;-73
2021/12/28 09:34:26;;;;;;;3.30;2.00;;;9.90;99.90;;;;;;4993275;28;20026;-72
2021/12/28 09:36:52;;;;;;;3.53;2.03;;;9.90;99.90;;;;;;4993136;28;20022;-74
2021/12/28 09:39:22;;;;;;;5.45;2.15;;;9.90;99.90;;;;;;4992386;28;20065;-72
2021/12/28 09:41:55;;;;;;;3.95;2.22;;;9.90;99.90;;;;;;4990721;28;20026;-74
2021/12/28 09:44:22;;;;;;;4.47;2.45;;;10.00;99.90;;;;;;4991959;28;20092;-74
2021/12/28 09:46:48;;;;;;;3.38;1.90;;;10.00;99.90;;;;;;4973394;28;20026;-73
2021/12/28 09:49:19;;;;;;;6.88;2.20;;;10.00;99.90;;;;;;4973281;28;20046;-72
2021/12/28 09:51:45;;;;;;;;;;;10.00;99.90;;;;;;4973742;28;20027;-73
2021/12/28 09:54:11;;;;;;;4.72;2.10;;;10.00;99.90;;;;;;4967085;28;19917;-73
2021/12/28 09:56:37;;;;;;;3.97;2.08;;;10.10;99.90;;;;;;4992946;28;20031;-72
2021/12/28 09:59:04;;;;;;;3.78;2.00;;;10.10;99.90;;;;;;4992480;28;20056;-72
2021/12/28 10:01:30;;;;;;;2.47;1.83;;;10.10;99.90;;;;;;4987397;28;20034;-72
2021/12/28 10:03:57;;;;;;;5.05;2.70;;;10.10;99.90;;;;;;4990595;28;20026;-72
2021/12/28 10:06:26;;;;;;;2.72;1.90;;;10.10;99.90;;;;;;4992087;28;20390;-72
2021/12/28 10:09:09;;;;;;;2.95;1.73;;;10.10;99.90;;;;;;4992577;28;20053;-73
2021/12/28 10:11:42;;;;;;;2.40;1.92;;;10.20;99.90;;;;;;4989390;28;20034;-73
2021/12/28 10:14:24;;;;;;;3.00;2.00;;;10.20;99.90;;;;;;4990492;28;20030;-71
2021/12/28 10:16:56;;;;;;;1.90;1.80;;;10.20;99.90;;;;;;5000827;28;20026;-71
2021/12/28 10:19:48;;;;;;;1.92;1.48;;;10.20;99.90;;;;;;4991648;28;20025;-73
2021/12/28 10:22:28;;;;;;;1.50;1.40;;;10.30;99.90;;;;;;4969192;28;20391;-73
2021/12/28 10:25:14;;;;;;;3.00;1.55;;;10.30;99.90;;;;;;4992183;28;20100;-75
2021/12/28 10:27:43;;;;;;;2.63;1.50;;;10.30;99.90;;;;;;4991579;28;20022;-77
2021/12/28 10:30:16;;;;;;;2.10;1.70;;;10.30;99.90;;;;;;4990389;28;20039;-75
2021/12/28 10:32:44;;;;;;;3.60;1.55;;;10.40;99.90;;;;;;4991019;28;20486;-77
2021/12/28 10:35:19;;;;;;;1.73;1.50;;;10.40;99.90;;;;;;4991549;28;20418;-77
2021/12/28 10:37:49;;;;;;;2.65;1.95;;;10.50;99.90;;;;;;4992058;28;20043;-77
2021/12/28 10:40:31;;;;;;;1.60;1.50;;;10.50;99.90;;;;;;4991019;28;20028;-75
2021/12/28 10:43:00;;;;;;;5.32;2.17;;;10.50;99.90;;;;;;4969612;28;20038;-75
2021/12/28 10:45:34;;;;;;;1.48;1.35;;;10.50;99.90;;;;;;4990532;28;20026;-77
2021/12/28 10:48:11;;;;;;;3.10;1.85;;;10.60;99.90;;;;;;4991746;28;20031;-74
2021/12/28 10:50:48;;;;;;;2.08;1.50;;;10.60;99.90;;;;;;4989669;28;20074;-74
2021/12/28 10:53:20;;;;;;;1.17;1.10;;;10.60;99.90;;;;;;4989236;28;20073;-78
2021/12/28 10:55:51;;;;;;;1.50;1.40;;;10.60;99.90;;;;;;4991261;28;20027;-73
2021/12/28 10:58:31;;;;;;;1.40;1.30;;;10.60;99.90;;;;;;4991471;28;20030;-74
2021/12/28 11:01:14;;;;;;;1.50;1.40;;;10.60;99.90;;;;;;4990522;28;20100;-80
2021/12/28 11:03:42;;;;;;;2.38;1.60;;;10.60;99.90;;;;;;4990970;28;20032;-79
2021/12/28 11:06:15;;;;;;;1.70;1.60;;;10.60;99.90;;;;;;4991070;28;20057;-76
2021/12/28 11:08:42;;;;;;;1.88;1.30;;;10.60;99.90;;;;;;4970077;28;20830;-75
2021/12/28 11:11:10;;;;;;;1.23;1.23;;;10.60;99.90;;;;;;4991122;28;20074;-74
2021/12/28 11:13:36;;;;;;;2.40;1.60;;;10.70;99.90;;;;;;4990846;28;20110;-76
2021/12/28 11:16:03;;;;;;;1.60;1.50;;;10.70;99.90;;;;;;4995858;28;20097;-77
2021/12/28 11:18:33;;;;;;;1.92;1.60;;;10.80;99.90;;;;;;5009933;28;20030;-75
2021/12/28 11:21:14;;;;;;;3.38;1.80;;;10.80;99.90;;;;;;4990887;28;20030;-75
2021/12/28 11:23:41;;;;;;;1.55;1.45;;;10.80;99.90;;;;;;4969655;28;20112;-77
2021/12/28 11:26:16;;;;;;;1.67;1.58;;;10.80;99.90;;;;;;4991351;28;20494;-79
2021/12/28 11:28:52;;;;;;;1.90;1.70;;;10.80;99.90;;;;;;4988992;28;20022;-77
2021/12/28 11:31:23;;;;;;;1.70;1.60;;;10.80;99.90;;;;;;4981720;28;20105;-74
2021/12/28 11:34:04;;;;;;;1.73;1.63;;;10.80;99.90;;;;;;4987688;28;20512;-76
2021/12/28 11:36:33;;;;;;;2.22;1.90;;;10.80;99.90;;;;;;4990952;28;20026;-78
2021/12/28 11:39:01;;;;;;;1.70;1.60;;;10.80;99.90;;;;;;4990293;28;20026;-78
2021/12/28 11:41:27;;;;;;;3.10;1.70;;;10.80;99.90;;;;;;4990594;28;20041;-75
2021/12/28 11:43:55;;;;;;;1.63;1.52;;;10.80;99.90;;;;;;4990183;28;20029;-73
2021/12/28 11:46:21;;;;;;;1.92;1.83;;;10.80;99.90;;;;;;4971201;28;20038;-74
2021/12/28 11:48:47;;;;;;;4.00;1.63;;;10.80;99.90;;;;;;4971542;28;20027;-78
2021/12/28 11:51:13;;;;;;;1.58;1.45;;;10.80;99.90;;;;;;4971541;28;20082;-75
2021/12/28 11:53:44;;;;;;;2.28;1.60;;;10.80;99.90;;;;;;4972149;28;20483;-77
2021/12/28 11:56:11;;;;;;;2.53;1.45;;;10.90;99.90;;;;;;4998310;28;20033;-77
2021/12/28 11:58:55;;;;;;;3.78;1.73;;;10.90;99.90;;;;;;4987432;28;20402;-73
2021/12/28 12:01:52;;;;;;;1.73;1.63;;;11.00;99.90;;;;;;4971320;28;20035;-73
2021/12/28 12:04:30;;;;;;;1.70;1.60;;;11.00;99.90;;;;;;4953539;28;20483;-81
2021/12/28 12:07:09;;;;;;;2.45;1.92;;;11.00;99.90;;;;;;4970821;28;20062;-75
2021/12/28 12:09:56;;;;;;;2.53;2.33;;;11.00;99.90;;;;;;4975957;28;20034;-73
2021/12/28 12:12:27;;;;;;;1.70;1.60;;;11.00;99.90;;;;;;4977278;28;20046;-75
2021/12/28 12:14:57;;;;;;;1.90;1.70;;;10.90;99.90;;;;;;4990199;28;20026;-76
2021/12/28 12:17:28;;;;;;;2.35;1.77;;;11.00;99.90;;;;;;5004743;28;20025;-75
2021/12/28 12:19:58;;;;;;;;;;;11.00;99.90;;;;;;4988621;28;20082;-79
2021/12/28 12:22:29;;;;;;;2.65;2.28;;;10.90;99.90;;;;;;4989342;28;19918;-73
2021/12/28 12:24:59;;;;;;;1.85;1.70;;;10.90;99.90;;;;;;4990473;28;20030;-75
2021/12/28 12:28:05;;;;;;;2.33;2.00;;;10.90;99.90;;;;;;4993271;28;20029;-71
2021/12/28 12:30:33;;;;;;;2.92;1.60;;;10.90;99.90;;;;;;4937106;28;20505;-80
2021/12/28 12:33:05;;;;;;;1.60;1.50;;;10.90;99.90;;;;;;4994029;28;20037;-72
2021/12/28 12:35:47;;;;;;;3.42;1.60;;;10.90;99.90;;;;;;4993556;28;20026;-72
2021/12/28 12:38:13;;;;;;;2.65;1.40;;;10.90;99.90;;;;;;4994510;28;20502;-76
2021/12/28 12:40:55;;;;;;;2.38;1.58;;;10.90;99.90;;;;;;4992466;28;20077;-75
2021/12/28 12:43:23;;;;;;;3.40;1.63;;;10.90;99.90;;;;;;4994334;28;20026;-75
2021/12/28 12:45:52;;;;;;;2.05;1.40;;;10.80;99.90;;;;;;4994395;28;20018;-78
2021/12/28 12:48:47;;;;;;;2.45;1.60;;;10.80;99.90;;;;;;4991857;28;20121;-76
2021/12/28 12:51:24;;;;;;;4.43;2.05;;;10.70;99.90;;;;;;4976822;28;20042;-78
2021/12/28 12:54:09;;;;;;;7.57;1.92;;;10.60;99.90;;;;;;4993036;28;20026;-80
2021/12/28 12:57:02;;;;;;;7.22;2.28;;;10.60;99.90;;;;;;4991030;28;20062;-76
2021/12/28 12:59:38;;;;;;;8.05;2.33;;;10.50;99.90;;;;;;4971577;28;20035;-78
2021/12/28 13:02:13;;;;;;;10.35;3.17;;;10.40;99.90;;;;;;4956385;28;20031;-80